Time;durP1;ratioP1;P1;durP2;ratioP2;P2;SDS_P1;SDS_P2;PMS_P1;PMS_P2;Temp;Humidity;BMP_temperature;BMP_pressure;BME280_temperature;BME280_humidity;BME280_pressure;Samples;Min_cycle;Max_cycle;Signal;HPM_P1;HPM_P2
2024/01/18 00:01:05;;;;;;;41.85;22.67;;;;;;;;;;5032264;28;20032;-62
2024/01/18 00:03:30;;;;;;;39.60;21.02;;;;;;;;;;5033942;28;20108;-62
2024/01/18 00:05:55;;;;;;;28.70;17.02;;;;;;;;;;5032354;28;20469;-60
2024/01/18 00:08:21;;;;;;;40.58;22.40;;;;;;;;;;5033591;28;20029;-60
2024/01/18 00:10:46;;;;;;;34.42;20.45;;;;;;;;;;5033553;28;20021;-60
2024/01/18 00:13:12;;;;;;;45.35;22.92;;;;;;;;;;5033832;28;20121;-61
2024/01/18 00:15:37;;;;;;;37.00;20.83;;;;;;;;;;5032234;28;20500;-60
2024/01/18 00:18:05;;;;;;;48.10;23.65;;;;;;;;;;5032295;28;20029;-60
2024/01/18 00:20:30;;;;;;;50.75;26.95;;;;;;;;;;5033980;28;20051;-60
2024/01/18 00:22:55;;;;;;;55.58;29.63;;;;;;;;;;5031565;28;20121;-61
2024/01/18 00:25:21;;;;;;;42.08;24.35;;;;;;;;;;5034132;28;20049;-61
2024/01/18 00:27:46;;;;;;;28.95;17.50;;;;;;;;;;5033971;28;20030;-60
2024/01/18 00:30:12;;;;;;;30.27;17.00;;;;;;;;;;5033620;28;20033;-61
2024/01/18 00:32:37;;;;;;;34.90;18.85;;;;;;;;;;5033863;28;20034;-60
2024/01/18 00:35:03;;;;;;;34.85;19.50;;;;;;;;;;5032017;28;20041;-61
2024/01/18 00:37:28;;;;;;;36.08;19.67;;;;;;;;;;5033618;28;20105;-60
2024/01/18 00:39:54;;;;;;;35.97;18.40;;;;;;;;;;5034822;28;20392;-60
2024/01/18 00:42:19;;;;;;;31.70;17.63;;;;;;;;;;5049577;23;20068;-66
2024/01/18 00:45:17;;;;;;;35.53;20.25;;;;;;;;;;5054706;22;20085;-61
2024/01/18 00:47:42;;;;;;;42.67;23.20;;;;;;;;;;5016036;28;20508;-60
2024/01/18 00:50:08;;;;;;;40.65;21.80;;;;;;;;;;5017479;28;20046;-61
2024/01/18 00:52:34;;;;;;;35.28;19.77;;;;;;;;;;5017530;28;20030;-61
2024/01/18 00:54:59;;;;;;;35.28;18.17;;;;;;;;;;5017738;28;20037;-60
2024/01/18 00:57:26;;;;;;;29.58;16.77;;;;;;;;;;5017184;28;20030;-60
2024/01/18 00:59:52;;;;;;;30.90;16.55;;;;;;;;;;5017283;28;20109;-60
2024/01/18 01:02:20;;;;;;;28.73;16.15;;;;;;;;;;5017518;28;20116;-60
2024/01/18 01:04:45;;;;;;;26.40;16.08;;;;;;;;;;5017006;28;20017;-59
2024/01/18 01:07:11;;;;;;;27.63;15.70;;;;;;;;;;5000166;28;20087;-59
2024/01/18 01:09:36;;;;;;;28.52;14.48;;;;;;;;;;5017090;28;20030;-59
2024/01/18 01:12:02;;;;;;;27.15;15.07;;;;;;;;;;4999956;28;20068;-61
2024/01/18 01:14:27;;;;;;;25.50;15.27;;;;;;;;;;4999867;28;20408;-60
2024/01/18 01:16:52;;;;;;;25.63;14.65;;;;;;;;;;4999321;28;20040;-61
2024/01/18 01:19:18;;;;;;;23.77;13.80;;;;;;;;;;5016796;28;20038;-62
2024/01/18 01:21:43;;;;;;;26.20;14.00;;;;;;;;;;5017222;28;20351;-62
2024/01/18 01:24:08;;;;;;;23.35;13.48;;;;;;;;;;5016854;28;20039;-62
2024/01/18 01:26:34;;;;;;;24.15;13.23;;;;;;;;;;4999134;28;20377;-61
2024/01/18 01:28:59;;;;;;;23.63;13.05;;;;;;;;;;5016898;28;20030;-62
2024/01/18 01:31:25;;;;;;;22.63;12.93;;;;;;;;;;5017264;28;20037;-62
2024/01/18 01:33:50;;;;;;;20.80;12.82;;;;;;;;;;5017071;28;20037;-62
2024/01/18 01:36:15;;;;;;;24.40;12.80;;;;;;;;;;5016740;28;20101;-61
2024/01/18 01:38:41;;;;;;;21.52;12.32;;;;;;;;;;4999052;28;20030;-61
2024/01/18 01:41:06;;;;;;;19.63;11.23;;;;;;;;;;5016537;28;20473;-61
2024/01/18 01:43:33;;;;;;;20.20;11.70;;;;;;;;;;4998391;28;20034;-62
2024/01/18 01:45:59;;;;;;;21.20;12.20;;;;;;;;;;5024548;28;20072;-62
2024/01/18 01:48:25;;;;;;;20.67;12.75;;;;;;;;;;5018329;28;20029;-61
2024/01/18 01:50:50;;;;;;;24.13;13.85;;;;;;;;;;5035699;28;20079;-61
2024/01/18 01:53:17;;;;;;;19.92;11.52;;;;;;;;;;5036358;28;20374;-61
2024/01/18 01:55:42;;;;;;;18.42;11.27;;;;;;;;;;5036458;28;20457;-61
2024/01/18 01:58:08;;;;;;;17.02;11.25;;;;;;;;;;5035859;28;20088;-62
2024/01/18 02:00:34;;;;;;;16.48;11.18;;;;;;;;;;5035749;28;20049;-62
2024/01/18 02:03:00;;;;;;;17.90;11.23;;;;;;;;;;5036223;28;20088;-61
2024/01/18 02:05:26;;;;;;;17.38;10.63;;;;;;;;;;5035642;28;20029;-60
2024/01/18 02:07:52;;;;;;;16.20;9.63;;;;;;;;;;5035246;28;20033;-61
2024/01/18 02:10:17;;;;;;;16.85;9.77;;;;;;;;;;5035593;28;20026;-61
2024/01/18 02:12:44;;;;;;;13.98;9.07;;;;;;;;;;5036138;28;20440;-61
2024/01/18 02:15:09;;;;;;;14.85;9.07;;;;;;;;;;5001447;28;20511;-61
2024/01/18 02:17:35;;;;;;;14.43;8.60;;;;;;;;;;5017627;28;20069;-62
2024/01/18 02:20:00;;;;;;;13.35;8.63;;;;;;;;;;5035489;28;20034;-61
2024/01/18 02:22:35;;;;;;;13.55;9.35;;;;;;;;;;5018352;28;20037;-61
2024/01/18 02:25:10;;;;;;;18.42;10.07;;;;;;;;;;5035638;28;20029;-62
2024/01/18 02:27:41;;;;;;;13.52;8.80;;;;;;;;;;5035237;28;20108;-61
2024/01/18 02:30:07;;;;;;;14.45;8.88;;;;;;;;;;5034513;28;20092;-61
2024/01/18 02:32:36;;;;;;;12.85;8.73;;;;;;;;;;5016989;28;20056;-61
2024/01/18 02:35:01;;;;;;;13.32;8.48;;;;;;;;;;5035286;28;20108;-60
2024/01/18 02:37:26;;;;;;;14.02;9.43;;;;;;;;;;5035592;28;20113;-61
2024/01/18 02:39:52;;;;;;;14.48;9.30;;;;;;;;;;5035192;28;20078;-60
2024/01/18 02:42:20;;;;;;;15.60;9.52;;;;;;;;;;5035226;28;20063;-60
2024/01/18 02:44:45;;;;;;;14.40;9.77;;;;;;;;;;5034932;28;20030;-60
2024/01/18 02:47:11;;;;;;;16.10;10.43;;;;;;;;;;5034778;28;20049;-61
2024/01/18 02:49:38;;;;;;;17.15;10.48;;;;;;;;;;5035050;28;20030;-64
2024/01/18 02:52:04;;;;;;;16.42;10.60;;;;;;;;;;5060156;23;20041;-60
2024/01/18 02:54:34;;;;;;;15.73;10.38;;;;;;;;;;5045869;23;20578;-61
2024/01/18 02:57:05;;;;;;;;;;;;;;;;;;5029655;23;20085;-65
2024/01/18 03:02:29;;;;;;;14.93;9.40;;;;;;;;;;5060909;22;19946;-60
2024/01/18 03:04:55;;;;;;;17.20;10.73;;;;;;;;;;5034154;28;20048;-61
2024/01/18 03:07:20;;;;;;;17.10;11.25;;;;;;;;;;5034532;28;20464;-61
2024/01/18 03:09:45;;;;;;;13.10;9.88;;;;;;;;;;5034773;28;20025;-60
2024/01/18 03:12:11;;;;;;;14.98;10.57;;;;;;;;;;5016524;28;20491;-60
2024/01/18 03:14:36;;;;;;;16.67;10.38;;;;;;;;;;5034653;28;20033;-60
2024/01/18 03:17:02;;;;;;;17.05;11.60;;;;;;;;;;5034485;28;20029;-61
2024/01/18 03:19:27;;;;;;;17.88;11.75;;;;;;;;;;5017229;28;20128;-61
2024/01/18 03:21:52;;;;;;;17.45;11.43;;;;;;;;;;5000274;28;20120;-60
2024/01/18 03:24:18;;;;;;;17.10;11.52;;;;;;;;;;5034699;28;20040;-60
2024/01/18 03:26:43;;;;;;;21.38;12.68;;;;;;;;;;5034165;28;20428;-60
2024/01/18 03:29:09;;;;;;;22.90;12.68;;;;;;;;;;5017070;28;20040;-60
2024/01/18 03:31:35;;;;;;;17.05;12.35;;;;;;;;;;5034373;28;20037;-60
2024/01/18 03:34:01;;;;;;;14.70;10.82;;;;;;;;;;5034848;28;20033;-60
2024/01/18 03:36:27;;;;;;;15.82;10.65;;;;;;;;;;5034579;28;20369;-60
2024/01/18 03:38:52;;;;;;;12.23;9.30;;;;;;;;;;5017091;28;20036;-61
2024/01/18 03:41:17;;;;;;;12.20;9.23;;;;;;;;;;5033825;28;20017;-61
2024/01/18 03:43:43;;;;;;;17.40;11.95;;;;;;;;;;5034089;28;20022;-60
2024/01/18 03:46:14;;;;;;;18.90;12.05;;;;;;;;;;5033855;28;20021;-61
2024/01/18 03:48:39;;;;;;;15.30;10.88;;;;;;;;;;5034403;28;20040;-60
2024/01/18 03:51:06;;;;;;;15.18;10.50;;;;;;;;;;5033822;28;20518;-61
2024/01/18 03:53:31;;;;;;;14.15;10.52;;;;;;;;;;5033953;28;20029;-61
2024/01/18 03:55:57;;;;;;;17.27;11.55;;;;;;;;;;5016154;28;20033;-61
2024/01/18 03:58:22;;;;;;;15.93;12.57;;;;;;;;;;5033906;28;20034;-61
2024/01/18 04:00:48;;;;;;;17.15;12.80;;;;;;;;;;5034207;28;20041;-60
2024/01/18 04:03:15;;;;;;;19.98;13.55;;;;;;;;;;5016264;28;20060;-61
2024/01/18 04:05:41;;;;;;;19.58;13.82;;;;;;;;;;5033899;28;20096;-61
2024/01/18 04:08:06;;;;;;;16.98;12.02;;;;;;;;;;5033584;28;20100;-60
2024/01/18 04:10:32;;;;;;;14.88;11.55;;;;;;;;;;5033859;28;20045;-61
2024/01/18 04:12:57;;;;;;;18.75;13.45;;;;;;;;;;5033818;28;20044;-61
2024/01/18 04:15:24;;;;;;;19.50;13.13;;;;;;;;;;4999090;28;20116;-63
2024/01/18 04:17:49;;;;;;;18.88;13.43;;;;;;;;;;5015783;28;20377;-62
2024/01/18 04:20:21;;;;;;;21.90;14.88;;;;;;;;;;5033731;28;20040;-60
2024/01/18 04:22:46;;;;;;;23.50;16.27;;;;;;;;;;5033459;28;20049;-61
2024/01/18 04:25:13;;;;;;;23.90;15.57;;;;;;;;;;5033156;28;20461;-61
2024/01/18 04:27:38;;;;;;;20.67;15.30;;;;;;;;;;5033978;28;20037;-61
2024/01/18 04:30:04;;;;;;;25.50;15.73;;;;;;;;;;5033497;28;20026;-61
2024/01/18 04:32:30;;;;;;;26.23;16.77;;;;;;;;;;5033620;28;20407;-60
2024/01/18 04:34:58;;;;;;;28.13;15.63;;;;;;;;;;5033719;28;20038;-60
2024/01/18 04:37:24;;;;;;;27.58;16.38;;;;;;;;;;5033553;28;20091;-61
2024/01/18 04:39:49;;;;;;;202.20;66.00;;;;;;;;;;5033446;28;20453;-61
2024/01/18 04:42:16;;;;;;;94.95;40.30;;;;;;;;;;5033089;28;20036;-59
2024/01/18 04:44:41;;;;;;;65.10;30.80;;;;;;;;;;5015584;28;20029;-59
2024/01/18 04:47:07;;;;;;;62.78;27.63;;;;;;;;;;5033432;28;20021;-59
2024/01/18 04:49:33;;;;;;;58.30;28.20;;;;;;;;;;5033792;28;20121;-59
2024/01/18 04:51:59;;;;;;;62.92;30.00;;;;;;;;;;5032772;28;20030;-59
2024/01/18 04:54:25;;;;;;;57.45;29.90;;;;;;;;;;5032698;28;20116;-60
2024/01/18 04:56:50;;;;;;;60.83;31.60;;;;;;;;;;5015723;28;20115;-65
2024/01/18 04:59:17;;;;;;;41.58;23.17;;;;;;;;;;5032576;28;20056;-64
2024/01/18 05:01:43;;;;;;;33.92;19.48;;;;;;;;;;5033587;28;20020;-65
2024/01/18 05:04:09;;;;;;;29.13;17.40;;;;;;;;;;5033170;28;20401;-65
2024/01/18 05:06:34;;;;;;;46.88;24.80;;;;;;;;;;5032952;28;20033;-66
2024/01/18 05:09:00;;;;;;;61.83;29.60;;;;;;;;;;5033596;28;20045;-65
2024/01/18 05:11:25;;;;;;;66.32;31.80;;;;;;;;;;5031883;28;20029;-66
2024/01/18 05:13:51;;;;;;;71.18;33.28;;;;;;;;;;5031792;28;20515;-67
2024/01/18 05:16:16;;;;;;;65.47;31.30;;;;;;;;;;5031368;28;20469;-63
2024/01/18 05:18:42;;;;;;;72.68;33.55;;;;;;;;;;5031592;28;20424;-64
2024/01/18 05:21:07;;;;;;;73.95;33.40;;;;;;;;;;5031874;28;20063;-64
2024/01/18 05:23:32;;;;;;;73.32;32.65;;;;;;;;;;5031834;28;20026;-64
2024/01/18 05:25:58;;;;;;;74.15;33.28;;;;;;;;;;5032281;28;20030;-64
2024/01/18 05:28:23;;;;;;;66.53;29.83;;;;;;;;;;5036916;28;20029;-64
2024/01/18 05:30:50;;;;;;;57.17;27.23;;;;;;;;;;5036899;28;20025;-64
2024/01/18 05:33:15;;;;;;;56.33;26.42;;;;;;;;;;5036589;28;20370;-64
2024/01/18 05:35:41;;;;;;;60.95;28.75;;;;;;;;;;5018506;28;20037;-64
2024/01/18 05:38:06;;;;;;;56.38;28.02;;;;;;;;;;5036517;28;20064;-63
2024/01/18 05:40:31;;;;;;;55.30;26.15;;;;;;;;;;5036415;28;20025;-63
2024/01/18 05:42:57;;;;;;;53.05;26.17;;;;;;;;;;5036456;28;20022;-63
2024/01/18 05:45:22;;;;;;;51.35;25.83;;;;;;;;;;5036658;28;20025;-63
2024/01/18 05:47:48;;;;;;;51.83;25.58;;;;;;;;;;5036109;28;20380;-63
2024/01/18 05:50:13;;;;;;;52.30;25.48;;;;;;;;;;5036567;28;20030;-64
2024/01/18 05:52:38;;;;;;;52.33;25.20;;;;;;;;;;5036556;28;20033;-63
2024/01/18 05:55:04;;;;;;;53.78;25.08;;;;;;;;;;5018135;28;20064;-63
2024/01/18 05:57:30;;;;;;;47.72;23.88;;;;;;;;;;5036175;28;20037;-64
2024/01/18 05:59:55;;;;;;;39.67;20.67;;;;;;;;;;5036375;28;20040;-64
2024/01/18 06:02:21;;;;;;;31.08;16.30;;;;;;;;;;5035534;28;20034;-64
2024/01/18 06:04:47;;;;;;;28.77;15.43;;;;;;;;;;5017991;28;20120;-64
2024/01/18 06:07:12;;;;;;;26.33;16.00;;;;;;;;;;5035738;28;20026;-64
2024/01/18 06:09:38;;;;;;;28.42;18.83;;;;;;;;;;5035664;28;20029;-64
2024/01/18 06:12:03;;;;;;;30.15;20.42;;;;;;;;;;5035883;28;20112;-64
2024/01/18 06:14:29;;;;;;;28.80;19.75;;;;;;;;;;5036165;28;20045;-64
2024/01/18 06:17:02;;;;;;;33.40;20.20;;;;;;;;;;5035525;28;20040;-64
2024/01/18 06:19:28;;;;;;;28.77;18.98;;;;;;;;;;5017753;28;20029;-63
2024/01/18 06:21:54;;;;;;;29.40;16.67;;;;;;;;;;5035277;28;20484;-63
2024/01/18 06:24:20;;;;;;;27.88;16.08;;;;;;;;;;5017577;28;20472;-64
2024/01/18 06:26:45;;;;;;;21.70;14.23;;;;;;;;;;5035058;28;20105;-64
2024/01/18 06:29:11;;;;;;;26.33;14.07;;;;;;;;;;5017225;28;20031;-64
2024/01/18 06:31:37;;;;;;;23.10;14.25;;;;;;;;;;5034878;28;20108;-64
2024/01/18 06:34:04;;;;;;;19.80;12.68;;;;;;;;;;5034537;28;20175;-64
2024/01/18 06:36:30;;;;;;;18.23;12.77;;;;;;;;;;5034041;28;20451;-64
2024/01/18 06:38:55;;;;;;;19.73;12.82;;;;;;;;;;5033630;28;20033;-64
2024/01/18 06:41:21;;;;;;;23.67;13.10;;;;;;;;;;5034890;28;20056;-64
2024/01/18 06:43:46;;;;;;;22.92;13.75;;;;;;;;;;5035280;28;20096;-64
2024/01/18 06:46:18;;;;;;;22.95;14.20;;;;;;;;;;5034948;28;20030;-64
2024/01/18 06:48:53;;;;;;;20.80;14.02;;;;;;;;;;5035446;28;20032;-64
2024/01/18 06:51:21;;;;;;;17.60;11.93;;;;;;;;;;5035141;28;20029;-64
2024/01/18 06:53:46;;;;;;;24.15;13.63;;;;;;;;;;5034866;28;20045;-64
2024/01/18 06:56:12;;;;;;;25.00;13.65;;;;;;;;;;5017021;28;20084;-64
2024/01/18 06:58:38;;;;;;;26.60;13.63;;;;;;;;;;5016972;28;20037;-64
2024/01/18 07:01:04;;;;;;;26.02;14.30;;;;;;;;;;5034582;28;20104;-64
2024/01/18 07:03:30;;;;;;;27.58;14.77;;;;;;;;;;5016745;28;20046;-64
2024/01/18 07:05:56;;;;;;;21.48;13.88;;;;;;;;;;5034523;28;20079;-63
2024/01/18 07:08:22;;;;;;;15.15;11.13;;;;;;;;;;5034528;28;20033;-64
2024/01/18 07:10:48;;;;;;;13.95;9.27;;;;;;;;;;5034517;28;20037;-64
2024/01/18 07:13:14;;;;;;;23.45;13.20;;;;;;;;;;5034478;28;20025;-64
2024/01/18 07:15:39;;;;;;;18.02;10.02;;;;;;;;;;5034441;28;20033;-64
2024/01/18 07:18:04;;;;;;;16.35;9.23;;;;;;;;;;5016613;28;20420;-64
2024/01/18 07:20:30;;;;;;;17.33;9.40;;;;;;;;;;5034536;28;20032;-64
2024/01/18 07:22:55;;;;;;;13.13;7.85;;;;;;;;;;5034794;28;20034;-64
2024/01/18 07:25:21;;;;;;;11.18;8.27;;;;;;;;;;5034815;28;20029;-64
2024/01/18 07:27:47;;;;;;;10.93;7.90;;;;;;;;;;5034771;28;20075;-64
2024/01/18 07:30:14;;;;;;;12.40;7.85;;;;;;;;;;5034394;28;20029;-64
2024/01/18 07:32:40;;;;;;;13.70;8.80;;;;;;;;;;5034424;28;20024;-64
2024/01/18 07:35:06;;;;;;;12.63;8.75;;;;;;;;;;5034389;28;20079;-64
2024/01/18 07:37:31;;;;;;;12.32;8.82;;;;;;;;;;5034341;28;20488;-64
2024/01/18 07:39:58;;;;;;;12.55;9.13;;;;;;;;;;5016237;28;20385;-64
2024/01/18 07:42:23;;;;;;;11.30;9.25;;;;;;;;;;5034158;28;20060;-63
2024/01/18 07:44:49;;;;;;;13.80;9.75;;;;;;;;;;5034485;28;20064;-63
2024/01/18 07:47:16;;;;;;;12.40;9.52;;;;;;;;;;5034171;28;20025;-64
2024/01/18 07:49:45;;;;;;;13.27;9.20;;;;;;;;;;5016212;28;20030;-64
2024/01/18 07:52:12;;;;;;;16.10;9.70;;;;;;;;;;5033839;28;20029;-64
2024/01/18 07:54:37;;;;;;;13.13;8.75;;;;;;;;;;5016487;28;20018;-63
2024/01/18 07:57:02;;;;;;;16.38;9.98;;;;;;;;;;5034017;28;20048;-64
2024/01/18 07:59:28;;;;;;;13.75;9.98;;;;;;;;;;5016438;28;20032;-64
2024/01/18 08:01:53;;;;;;;15.45;10.18;;;;;;;;;;5033541;28;20033;-64
2024/01/18 08:04:18;;;;;;;20.60;10.95;;;;;;;;;;5033610;28;20044;-64
2024/01/18 08:06:44;;;;;;;15.07;9.35;;;;;;;;;;5033899;28;20036;-64
2024/01/18 08:09:12;;;;;;;14.57;9.57;;;;;;;;;;5033627;28;20029;-63
2024/01/18 08:11:38;;;;;;;13.48;8.95;;;;;;;;;;5033877;28;20464;-63
2024/01/18 08:14:03;;;;;;;16.13;9.88;;;;;;;;;;5033562;28;20080;-63
2024/01/18 08:16:29;;;;;;;13.90;9.65;;;;;;;;;;5033535;28;20489;-63
2024/01/18 08:18:55;;;;;;;16.58;10.25;;;;;;;;;;5033770;28;20025;-63
2024/01/18 08:21:21;;;;;;;12.75;8.98;;;;;;;;;;5033681;28;20473;-63
2024/01/18 08:23:47;;;;;;;12.30;9.48;;;;;;;;;;5015727;28;20029;-63
2024/01/18 08:26:12;;;;;;;10.82;8.52;;;;;;;;;;5033423;28;20028;-63
2024/01/18 08:28:38;;;;;;;11.68;8.98;;;;;;;;;;5033441;28;20393;-63
2024/01/18 08:31:04;;;;;;;11.45;8.88;;;;;;;;;;5033640;28;20112;-63
2024/01/18 08:33:29;;;;;;;13.40;9.68;;;;;;;;;;5033611;28;20033;-63
2024/01/18 08:35:55;;;;;;;12.50;9.70;;;;;;;;;;5033612;28;20499;-63
2024/01/18 08:38:20;;;;;;;14.02;10.18;;;;;;;;;;5033323;28;20532;-63
2024/01/18 08:40:46;;;;;;;13.82;10.07;;;;;;;;;;5033211;28;20540;-64
2024/01/18 08:43:11;;;;;;;11.82;9.18;;;;;;;;;;5033522;28;20033;-64
2024/01/18 08:45:39;;;;;;;12.32;9.65;;;;;;;;;;5033324;28;20430;-64
2024/01/18 08:48:04;;;;;;;13.30;9.35;;;;;;;;;;5033109;28;20018;-64
2024/01/18 08:50:30;;;;;;;13.05;9.25;;;;;;;;;;5033754;28;20108;-64
2024/01/18 08:52:55;;;;;;;11.52;9.40;;;;;;;;;;5015502;28;20029;-64
2024/01/18 08:55:20;;;;;;;11.63;9.10;;;;;;;;;;5033684;28;20030;-64
2024/01/18 08:57:47;;;;;;;11.45;9.00;;;;;;;;;;5033418;28;20049;-63
2024/01/18 09:00:13;;;;;;;11.13;7.90;;;;;;;;;;5048773;28;20081;-64
2024/01/18 09:02:42;;;;;;;10.85;8.35;;;;;;;;;;5037218;28;20401;-64
2024/01/18 09:05:08;;;;;;;11.70;9.13;;;;;;;;;;5019157;28;20392;-64
2024/01/18 09:07:34;;;;;;;12.57;10.25;;;;;;;;;;5036840;28;20028;-64
2024/01/18 09:10:00;;;;;;;15.10;10.93;;;;;;;;;;5037308;28;20435;-64
2024/01/18 09:12:26;;;;;;;12.57;10.00;;;;;;;;;;5036736;28;20033;-64
2024/01/18 09:14:51;;;;;;;16.20;10.75;;;;;;;;;;5018969;28;20018;-64
2024/01/18 09:17:17;;;;;;;13.77;10.13;;;;;;;;;;5018955;28;20037;-64
2024/01/18 09:19:43;;;;;;;16.60;12.25;;;;;;;;;;5037167;28;20052;-64
2024/01/18 09:22:09;;;;;;;15.80;11.82;;;;;;;;;;5018823;28;20043;-64
2024/01/18 09:24:35;;;;;;;15.35;10.70;;;;;;;;;;5036863;28;20013;-64
2024/01/18 09:27:00;;;;;;;15.82;12.02;;;;;;;;;;5036769;28;20117;-64
2024/01/18 09:29:26;;;;;;;16.40;10.45;;;;;;;;;;5036725;28;20417;-64
2024/01/18 09:31:51;;;;;;;16.20;11.00;;;;;;;;;;5036653;28;20034;-64
2024/01/18 09:34:17;;;;;;;15.82;10.40;;;;;;;;;;5036893;28;20041;-64
2024/01/18 09:36:42;;;;;;;14.93;11.27;;;;;;;;;;5036329;28;20076;-64
2024/01/18 09:39:15;;;;;;;16.73;11.00;;;;;;;;;;5036806;28;20068;-64
2024/01/18 09:41:41;;;;;;;15.38;10.65;;;;;;;;;;5036126;28;20087;-64
2024/01/18 09:44:09;;;;;;;14.18;10.50;;;;;;;;;;5036439;28;20029;-64
2024/01/18 09:46:35;;;;;;;17.73;12.52;;;;;;;;;;5018390;28;20389;-64
2024/01/18 09:49:00;;;;;;;18.23;12.65;;;;;;;;;;5036081;28;20029;-64
2024/01/18 09:51:26;;;;;;;15.13;11.95;;;;;;;;;;5018704;28;20037;-64
2024/01/18 09:53:54;;;;;;;19.08;13.23;;;;;;;;;;5036003;28;20064;-64
2024/01/18 09:56:23;;;;;;;17.70;12.65;;;;;;;;;;5036231;28;20048;-64
2024/01/18 09:58:49;;;;;;;16.65;11.20;;;;;;;;;;5036224;28;20113;-64
2024/01/18 10:01:20;;;;;;;17.25;12.40;;;;;;;;;;5001669;28;20120;-63
2024/01/18 10:03:46;;;;;;;19.00;12.80;;;;;;;;;;5035760;28;20085;-63
2024/01/18 10:06:12;;;;;;;14.88;11.32;;;;;;;;;;5018029;28;20143;-63
2024/01/18 10:08:38;;;;;;;15.23;11.63;;;;;;;;;;5035997;28;20021;-63
2024/01/18 10:11:03;;;;;;;13.20;10.25;;;;;;;;;;5018329;28;20033;-63
2024/01/18 10:13:29;;;;;;;13.38;9.35;;;;;;;;;;5034953;28;20440;-63
2024/01/18 10:15:54;;;;;;;12.02;8.13;;;;;;;;;;5017779;28;20107;-63
2024/01/18 10:18:19;;;;;;;7.97;6.55;;;;;;;;;;5035541;28;20040;-63
2024/01/18 10:20:47;;;;;;;8.65;7.10;;;;;;;;;;5036018;28;20029;-63
2024/01/18 10:23:12;;;;;;;8.82;6.32;;;;;;;;;;5035447;28;20025;-63
2024/01/18 10:25:39;;;;;;;6.88;5.70;;;;;;;;;;5035401;28;20362;-63
2024/01/18 10:28:04;;;;;;;6.43;5.72;;;;;;;;;;5035348;28;20013;-63
2024/01/18 10:30:31;;;;;;;5.65;5.03;;;;;;;;;;5035596;28;20026;-63
2024/01/18 10:33:00;;;;;;;6.28;5.30;;;;;;;;;;5035547;28;20068;-63
2024/01/18 10:35:25;;;;;;;6.97;5.60;;;;;;;;;;5017810;28;20044;-63
2024/01/18 10:38:17;;;;;;;5.00;4.53;;;;;;;;;;5017432;28;20112;-63
2024/01/18 10:40:48;;;;;;;5.32;4.80;;;;;;;;;;5030362;28;20061;-63
2024/01/18 10:43:14;;;;;;;5.95;4.90;;;;;;;;;;5035065;28;20059;-63
2024/01/18 10:45:39;;;;;;;4.55;4.15;;;;;;;;;;5035010;28;20388;-63
2024/01/18 10:48:05;;;;;;;5.55;5.03;;;;;;;;;;5034951;28;20028;-63
2024/01/18 10:50:31;;;;;;;5.20;4.72;;;;;;;;;;5035228;28;20156;-63
2024/01/18 10:52:57;;;;;;;5.47;4.93;;;;;;;;;;5035158;28;20032;-64
2024/01/18 10:55:22;;;;;;;6.07;5.53;;;;;;;;;;5017113;28;20017;-64
2024/01/18 10:57:48;;;;;;;5.70;5.10;;;;;;;;;;5035036;28;20112;-64
2024/01/18 11:00:16;;;;;;;5.90;5.13;;;;;;;;;;5034729;28;20025;-64
2024/01/18 11:02:43;;;;;;;4.88;4.47;;;;;;;;;;5035061;28;20132;-64
2024/01/18 11:05:10;;;;;;;5.35;4.78;;;;;;;;;;5034631;28;20030;-64
2024/01/18 11:07:37;;;;;;;5.10;4.68;;;;;;;;;;5034876;28;20026;-64
2024/01/18 11:10:10;;;;;;;5.40;4.90;;;;;;;;;;5034791;28;20029;-64
2024/01/18 11:12:37;;;;;;;7.55;5.80;;;;;;;;;;5035044;28;20083;-64
2024/01/18 11:15:04;;;;;;;7.00;6.13;;;;;;;;;;5016678;28;20128;-64
2024/01/18 11:17:31;;;;;;;6.70;6.00;;;;;;;;;;5034697;28;20061;-64
2024/01/18 11:20:05;;;;;;;7.60;6.78;;;;;;;;;;5040110;23;20079;-59
2024/01/18 11:22:30;;;;;;;7.40;6.38;;;;;;;;;;5051103;23;20068;-59
2024/01/18 11:25:03;;;;;;;8.35;7.05;;;;;;;;;;5059144;23;20066;-61
2024/01/18 11:30:35;;;;;;;10.45;9.23;;;;;;;;;;5050550;23;20057;-59
2024/01/18 11:33:00;;;;;;;11.68;9.30;;;;;;;;;;5017456;28;20064;-59
2024/01/18 11:35:26;;;;;;;12.82;10.60;;;;;;;;;;5034654;28;20052;-59
2024/01/18 11:37:51;;;;;;;11.02;9.48;;;;;;;;;;5016349;28;20044;-59
2024/01/18 11:40:17;;;;;;;9.45;7.97;;;;;;;;;;5034020;28;20045;-59
2024/01/18 11:42:44;;;;;;;8.65;7.78;;;;;;;;;;5034191;28;20531;-59
2024/01/18 11:45:16;;;;;;;9.57;7.53;;;;;;;;;;5033933;28;20436;-59
2024/01/18 11:47:42;;;;;;;11.88;8.30;;;;;;;;;;5033903;28;20052;-59
2024/01/18 11:50:10;;;;;;;8.32;6.65;;;;;;;;;;5034162;28;20372;-60
2024/01/18 11:52:37;;;;;;;7.93;6.40;;;;;;;;;;5034135;28;20025;-59
2024/01/18 11:55:03;;;;;;;8.80;7.20;;;;;;;;;;5034082;28;20044;-59
2024/01/18 11:57:29;;;;;;;8.77;7.55;;;;;;;;;;5034058;28;20025;-59
2024/01/18 11:59:55;;;;;;;9.88;7.72;;;;;;;;;;5034287;28;20109;-59
2024/01/18 12:02:28;;;;;;;10.93;8.52;;;;;;;;;;5033612;28;20472;-59
2024/01/18 12:04:54;;;;;;;10.48;9.38;;;;;;;;;;5034242;28;20033;-59
2024/01/18 12:07:19;;;;;;;15.38;11.05;;;;;;;;;;5033971;28;20026;-59
2024/01/18 12:09:45;;;;;;;16.00;11.00;;;;;;;;;;5033656;28;20022;-59
2024/01/18 12:12:10;;;;;;;21.88;12.48;;;;;;;;;;5033890;28;20392;-59
2024/01/18 12:14:42;;;;;;;15.40;9.85;;;;;;;;;;5033606;28;20033;-59
2024/01/18 12:17:12;;;;;;;17.88;11.15;;;;;;;;;;5033802;28;20140;-59
2024/01/18 12:19:38;;;;;;;12.52;9.20;;;;;;;;;;5033797;28;20037;-59
2024/01/18 12:22:07;;;;;;;10.57;8.43;;;;;;;;;;5033743;28;20053;-59
2024/01/18 12:24:33;;;;;;;9.55;8.38;;;;;;;;;;5016212;28;20385;-59
2024/01/18 12:26:59;;;;;;;9.77;7.95;;;;;;;;;;5033431;28;20025;-59
2024/01/18 12:29:24;;;;;;;8.88;7.43;;;;;;;;;;5033725;28;20080;-59
2024/01/18 12:31:50;;;;;;;9.10;7.40;;;;;;;;;;5033175;28;20393;-60
2024/01/18 12:34:21;;;;;;;9.20;7.57;;;;;;;;;;5033657;28;20026;-60
2024/01/18 12:36:47;;;;;;;7.97;7.18;;;;;;;;;;5019000;28;20038;-60
2024/01/18 12:39:13;;;;;;;8.73;7.53;;;;;;;;;;5037636;28;20022;-60
2024/01/18 12:41:39;;;;;;;10.57;7.82;;;;;;;;;;5037540;28;20039;-59
2024/01/18 12:44:09;;;;;;;9.30;7.93;;;;;;;;;;5037595;28;20017;-60
2024/01/18 12:46:34;;;;;;;;;;;;;;;;;;5037962;28;20075;-59
2024/01/18 12:49:00;;;;;;;12.57;9.00;;;;;;;;;;5037202;28;19908;-60
2024/01/18 12:51:27;;;;;;;14.52;10.32;;;;;;;;;;5037163;28;20029;-59
2024/01/18 12:53:52;;;;;;;16.15;9.88;;;;;;;;;;5037435;28;20042;-59
2024/01/18 12:56:18;;;;;;;16.27;11.30;;;;;;;;;;5037081;28;20033;-59
2024/01/18 12:58:44;;;;;;;15.45;11.70;;;;;;;;;;5037002;28;20033;-59
2024/01/18 13:01:10;;;;;;;15.27;11.75;;;;;;;;;;5037193;28;20119;-59
2024/01/18 13:03:35;;;;;;;16.38;11.60;;;;;;;;;;5019206;28;20061;-59
2024/01/18 13:06:02;;;;;;;16.58;12.07;;;;;;;;;;5036894;28;20026;-59
2024/01/18 13:08:27;;;;;;;16.80;11.63;;;;;;;;;;5037142;28;20033;-59
2024/01/18 13:10:53;;;;;;;16.05;11.40;;;;;;;;;;5037362;28;20052;-59
2024/01/18 13:13:18;;;;;;;15.63;11.75;;;;;;;;;;5037033;28;20116;-59
2024/01/18 13:15:44;;;;;;;16.20;11.73;;;;;;;;;;5036517;28;20071;-64
2024/01/18 13:18:09;;;;;;;16.60;11.77;;;;;;;;;;5035268;28;20022;-64
2024/01/18 13:20:38;;;;;;;17.25;12.18;;;;;;;;;;5036130;28;20029;-64
2024/01/18 13:23:03;;;;;;;16.65;12.13;;;;;;;;;;5036720;28;20025;-65
2024/01/18 13:25:29;;;;;;;17.15;12.38;;;;;;;;;;5036810;28;20025;-65
2024/01/18 13:27:56;;;;;;;21.23;14.45;;;;;;;;;;5036560;28;20022;-65
2024/01/18 13:30:22;;;;;;;43.67;27.35;;;;;;;;;;5036641;28;20040;-64
2024/01/18 13:32:47;;;;;;;71.70;46.13;;;;;;;;;;5036915;28;20033;-64
2024/01/18 13:35:13;;;;;;;34.00;24.20;;;;;;;;;;5036652;28;20029;-64
2024/01/18 13:37:38;;;;;;;23.45;17.52;;;;;;;;;;5019446;28;20064;-64
2024/01/18 13:40:05;;;;;;;22.20;15.95;;;;;;;;;;5036567;28;20033;-64
2024/01/18 13:42:31;;;;;;;23.77;15.32;;;;;;;;;;5036281;28;20435;-64
2024/01/18 13:44:57;;;;;;;35.20;20.55;;;;;;;;;;5036584;28;20108;-64
2024/01/18 13:47:22;;;;;;;51.30;28.00;;;;;;;;;;5035010;28;20087;-64
2024/01/18 13:49:50;;;;;;;46.55;26.05;;;;;;;;;;5018554;28;20068;-64
2024/01/18 13:52:18;;;;;;;69.32;37.42;;;;;;;;;;5036011;28;20521;-64
2024/01/18 13:54:44;;;;;;;51.42;30.48;;;;;;;;;;5018355;28;20038;-64
2024/01/18 13:57:09;;;;;;;56.47;35.85;;;;;;;;;;5018519;28;20076;-64
2024/01/18 13:59:34;;;;;;;39.58;27.65;;;;;;;;;;5036638;28;20029;-65
2024/01/18 14:02:00;;;;;;;448.17;306.58;;;;;;;;;;5035979;28;20034;-64
2024/01/18 14:04:25;;;;;;;195.75;119.50;;;;;;;;;;5036079;28;20108;-64
2024/01/18 14:06:50;;;;;;;43.80;31.35;;;;;;;;;;5034826;28;20029;-65
2024/01/18 14:09:17;;;;;;;49.78;33.70;;;;;;;;;;5017313;28;20033;-65
2024/01/18 14:11:42;;;;;;;32.72;24.83;;;;;;;;;;5036136;28;20072;-64
2024/01/18 14:14:07;;;;;;;24.65;16.77;;;;;;;;;;5017820;28;20033;-64
2024/01/18 14:16:33;;;;;;;58.65;26.42;;;;;;;;;;5035571;28;20025;-64
2024/01/18 14:18:58;;;;;;;520.45;341.58;;;;;;;;;;5036055;28;20067;-64
2024/01/18 14:21:24;;;;;;;186.93;107.88;;;;;;;;;;5035676;28;20037;-65
2024/01/18 14:23:51;;;;;;;76.50;44.13;;;;;;;;;;5034166;28;20021;-64